Time;durP1;ratioP1;P1;durP2;ratioP2;P2;SDS_P1;SDS_P2;PMS_P1;PMS_P2;Temp;Humidity;BMP_temperature;BMP_pressure;BME280_temperature;BME280_humidity;BME280_pressure;Samples;Min_cycle;Max_cycle;Signal;HPM_P1;HPM_P2
2023/08/22 00:00:29;;;;;;;6.67;3.00;;;16.50;99.90;;;;;;5034060;28;20623;-85
2023/08/22 00:02:55;;;;;;;4.53;2.83;;;16.40;99.90;;;;;;5068870;28;20381;-86
2023/08/22 00:05:22;;;;;;;5.27;2.93;;;16.30;99.90;;;;;;5068468;28;20209;-85
2023/08/22 00:07:48;;;;;;;4.17;2.90;;;16.20;99.90;;;;;;5068214;28;20307;-86
2023/08/22 00:10:14;;;;;;;3.33;2.23;;;16.20;99.90;;;;;;5034077;28;20237;-87
2023/08/22 00:12:41;;;;;;;3.23;2.57;;;16.20;99.90;;;;;;5068018;28;20363;-87
2023/08/22 00:15:10;;;;;;;6.70;2.77;;;16.20;99.90;;;;;;5068411;28;20234;-85
2023/08/22 00:17:42;;;;;;;3.30;2.83;;;16.20;99.90;;;;;;5067282;28;20251;-85
2023/08/22 00:20:11;;;;;;;6.83;2.93;;;16.10;99.90;;;;;;5050384;28;20220;-86
2023/08/22 00:22:37;;;;;;;3.47;2.87;;;16.00;99.90;;;;;;5068096;28;20213;-87
2023/08/22 00:25:07;;;;;;;3.33;3.00;;;16.00;99.90;;;;;;5050580;28;20209;-87
2023/08/22 00:27:33;;;;;;;10.60;4.27;;;16.20;99.90;;;;;;5068211;28;20215;-87
2023/08/22 00:29:59;;;;;;;5.07;4.37;;;16.40;99.90;;;;;;5050915;28;20177;-87
2023/08/22 00:32:25;;;;;;;3.93;2.80;;;16.50;99.90;;;;;;5033995;28;20217;-86
2023/08/22 00:34:51;;;;;;;10.37;4.60;;;16.50;99.90;;;;;;5067972;28;20212;-87
2023/08/22 00:37:18;;;;;;;5.47;3.77;;;16.60;99.90;;;;;;5068015;28;20213;-87
2023/08/22 00:39:43;;;;;;;6.87;4.57;;;16.60;99.90;;;;;;5068034;28;20274;-86
2023/08/22 00:42:09;;;;;;;9.97;3.63;;;16.60;99.90;;;;;;5068373;28;20174;-86
2023/08/22 00:44:35;;;;;;;7.13;3.70;;;16.60;99.90;;;;;;5034047;28;20209;-87
2023/08/22 00:47:00;;;;;;;7.13;4.00;;;16.50;99.90;;;;;;5068098;28;20615;-87
2023/08/22 00:49:26;;;;;;;4.63;3.97;;;16.60;99.90;;;;;;5033740;28;20405;-87
2023/08/22 00:51:53;;;;;;;4.73;3.60;;;16.60;99.90;;;;;;5068058;28;20217;-87
2023/08/22 00:54:20;;;;;;;7.00;4.03;;;16.70;99.90;;;;;;5070482;28;20242;-87
2023/08/22 00:56:46;;;;;;;5.33;3.70;;;16.70;99.90;;;;;;5072331;28;20252;-87
2023/08/22 00:59:12;;;;;;;6.00;3.37;;;16.70;99.90;;;;;;5054059;28;20212;-86
2023/08/22 01:01:39;;;;;;;2.90;2.70;;;16.60;99.90;;;;;;5071508;28;20382;-86
2023/08/22 01:04:04;;;;;;;3.63;3.33;;;16.50;99.90;;;;;;5053681;28;20740;-85
2023/08/22 01:06:45;;;;;;;5.97;3.03;;;16.30;99.90;;;;;;5071235;28;20174;-87
2023/08/22 01:09:23;;;;;;;4.73;3.57;;;16.10;99.90;;;;;;5054301;28;20193;-86
2023/08/22 01:11:52;;;;;;;4.23;2.67;;;15.90;99.90;;;;;;5051561;28;20284;-87
2023/08/22 01:14:20;;;;;;;4.23;2.90;;;15.70;99.90;;;;;;5033775;28;20240;-88
2023/08/22 01:16:47;;;;;;;3.63;2.87;;;15.60;99.90;;;;;;5051511;28;20222;-87
2023/08/22 01:19:17;;;;;;;4.10;3.10;;;15.50;99.90;;;;;;5058970;28;20213;-87
2023/08/22 01:21:52;;;;;;;6.37;3.30;;;15.60;99.90;;;;;;5053197;28;20561;-87
2023/08/22 01:24:19;;;;;;;7.03;3.47;;;15.70;99.90;;;;;;5071095;28;20179;-87
2023/08/22 01:26:46;;;;;;;7.87;4.50;;;15.80;99.90;;;;;;5054211;28;20192;-86
2023/08/22 01:29:30;;;;;;;3.37;3.03;;;15.90;99.90;;;;;;5053046;28;20225;-86
2023/08/22 01:32:30;;;;;;;9.27;4.03;;;16.00;99.90;;;;;;5053026;28;20450;-85
2023/08/22 01:35:02;;;;;;;7.03;3.37;;;16.10;99.90;;;;;;5019361;28;20335;-85
2023/08/22 01:37:32;;;;;;;6.07;4.10;;;16.20;99.90;;;;;;5070547;28;20205;-86
2023/08/22 01:39:59;;;;;;;6.63;4.17;;;16.20;99.90;;;;;;5036465;28;20216;-86
2023/08/22 01:42:25;;;;;;;11.90;4.07;;;16.30;99.90;;;;;;5070570;28;20178;-87
2023/08/22 01:44:51;;;;;;;6.10;3.43;;;16.30;99.90;;;;;;5053369;28;20247;-84
2023/08/22 01:47:17;;;;;;;8.13;5.27;;;16.30;99.90;;;;;;5070418;28;20213;-86
2023/08/22 01:49:43;;;;;;;7.97;4.40;;;16.40;99.90;;;;;;5036339;28;20765;-86
2023/08/22 01:52:08;;;;;;;5.77;4.33;;;16.40;99.90;;;;;;5052936;28;20213;-87
2023/08/22 01:54:41;;;;;;;7.57;4.83;;;16.40;99.90;;;;;;5036146;28;20181;-86
2023/08/22 01:57:06;;;;;;;5.77;4.60;;;16.50;99.90;;;;;;5070731;28;20684;-85
2023/08/22 01:59:32;;;;;;;7.30;4.90;;;16.40;99.90;;;;;;5070731;28;20216;-83
2023/08/22 02:01:58;;;;;;;7.13;4.27;;;16.40;99.90;;;;;;5052315;28;20313;-87
2023/08/22 02:04:23;;;;;;;5.67;3.97;;;16.40;99.90;;;;;;5069566;28;20225;-86
2023/08/22 02:06:49;;;;;;;5.67;5.07;;;16.30;99.90;;;;;;5052650;28;20262;-85
2023/08/22 02:09:15;;;;;;;14.87;4.13;;;16.30;99.90;;;;;;5036175;28;20549;-87
2023/08/22 02:11:41;;;;;;;4.33;3.93;;;16.20;99.90;;;;;;5052689;28;20236;-86
2023/08/22 02:14:06;;;;;;;4.43;3.00;;;16.10;99.90;;;;;;5051945;28;20727;-84
2023/08/22 02:16:33;;;;;;;6.70;3.50;;;16.00;99.90;;;;;;5052054;28;20793;-86
2023/08/22 02:18:59;;;;;;;5.10;2.97;;;16.00;99.90;;;;;;5070023;28;20217;-86
2023/08/22 02:21:25;;;;;;;5.93;4.43;;;15.80;99.90;;;;;;5052172;28;20745;-86
2023/08/22 02:23:51;;;;;;;5.17;4.10;;;15.80;99.90;;;;;;5070635;28;20264;-86
2023/08/22 02:26:17;;;;;;;8.37;4.07;;;15.90;99.90;;;;;;5051797;28;20213;-86
2023/08/22 02:28:43;;;;;;;5.80;4.50;;;15.90;99.90;;;;;;5051706;28;20337;-86
2023/08/22 02:31:08;;;;;;;7.10;3.27;;;16.00;99.90;;;;;;5069389;28;20216;-86
2023/08/22 02:33:34;;;;;;;8.57;3.83;;;16.00;99.90;;;;;;5051690;28;20192;-87
2023/08/22 02:36:00;;;;;;;7.07;4.10;;;16.00;99.90;;;;;;5052877;28;20181;-86
2023/08/22 02:38:26;;;;;;;4.40;2.97;;;16.10;99.90;;;;;;5051388;28;20327;-87
2023/08/22 02:40:52;;;;;;;8.83;4.17;;;16.10;99.90;;;;;;5051694;28;20340;-86
2023/08/22 02:43:18;;;;;;;5.87;4.60;;;16.20;99.90;;;;;;5051139;28;20217;-88
2023/08/22 02:45:47;;;;;;;10.77;4.37;;;16.20;99.90;;;;;;5035126;28;20718;-86
2023/08/22 02:48:13;;;;;;;5.53;4.30;;;16.30;99.90;;;;;;5069582;28;20205;-86
2023/08/22 02:50:38;;;;;;;5.73;4.37;;;16.40;99.90;;;;;;5069304;28;20748;-86
2023/08/22 02:53:04;;;;;;;5.23;3.87;;;16.40;99.90;;;;;;5034665;28;20213;-86
2023/08/22 02:55:31;;;;;;;11.10;4.40;;;16.40;99.90;;;;;;5050914;28;20224;-85
2023/08/22 02:57:57;;;;;;;12.83;4.77;;;16.40;99.90;;;;;;5068734;28;20217;-86
2023/08/22 03:00:23;;;;;;;6.20;4.07;;;16.50;99.90;;;;;;5034253;28;20185;-84
2023/08/22 03:02:49;;;;;;;9.13;5.13;;;16.50;99.90;;;;;;5067405;28;20251;-86
2023/08/22 03:05:15;;;;;;;8.63;3.93;;;16.50;99.90;;;;;;5051148;28;20856;-87
2023/08/22 03:07:41;;;;;;;5.00;4.00;;;16.40;99.90;;;;;;5068728;28;20653;-86
2023/08/22 03:10:10;;;;;;;4.67;2.63;;;16.40;99.90;;;;;;5034255;28;20209;-84
2023/08/22 03:12:36;;;;;;;7.80;2.93;;;16.30;99.90;;;;;;5051058;28;20674;-85
2023/08/22 03:15:02;;;;;;;2.83;2.60;;;16.00;99.90;;;;;;5068938;28;20181;-85
2023/08/22 03:17:28;;;;;;;4.00;3.20;;;15.90;99.90;;;;;;5050034;28;20205;-85
2023/08/22 03:19:54;;;;;;;7.00;2.90;;;15.80;99.90;;;;;;5050799;28;20592;-86
2023/08/22 03:22:19;;;;;;;3.50;2.77;;;15.70;99.90;;;;;;5050887;28;20670;-86
2023/08/22 03:24:45;;;;;;;3.67;2.00;;;15.50;99.90;;;;;;5050841;28;20236;-85
2023/08/22 03:27:11;;;;;;;4.70;3.20;;;15.30;99.90;;;;;;5051262;28;20578;-85
2023/08/22 03:29:36;;;;;;;7.50;3.80;;;15.40;99.90;;;;;;5050731;28;20225;-85
2023/08/22 03:32:02;;;;;;;4.70;3.50;;;15.50;99.90;;;;;;5050725;28;20236;-85
2023/08/22 03:34:28;;;;;;;6.83;4.33;;;15.60;99.90;;;;;;5067301;28;20213;-84
2023/08/22 03:36:54;;;;;;;4.43;3.77;;;15.70;99.90;;;;;;5050541;28;20699;-87
2023/08/22 03:39:19;;;;;;;4.97;3.63;;;15.80;99.90;;;;;;5067315;28;20180;-88
2023/08/22 03:41:45;;;;;;;7.03;3.70;;;15.80;99.90;;;;;;5036640;28;20181;-86
2023/08/22 03:44:11;;;;;;;6.73;4.03;;;15.80;99.90;;;;;;5074223;28;20277;-84
2023/08/22 03:46:37;;;;;;;15.80;4.73;;;15.80;99.90;;;;;;5078417;28;20233;-84
2023/08/22 03:49:02;;;;;;;6.53;4.67;;;15.80;99.90;;;;;;5076433;28;20559;-88
2023/08/22 03:51:30;;;;;;;6.43;4.77;;;15.80;99.90;;;;;;5051590;28;20192;-85
2023/08/22 03:53:55;;;;;;;11.37;5.43;;;15.80;99.90;;;;;;5051472;28;20184;-88
2023/08/22 03:56:21;;;;;;;12.07;5.23;;;15.80;99.90;;;;;;5068118;28;20572;-88
2023/08/22 03:58:47;;;;;;;9.53;4.93;;;15.90;99.90;;;;;;5068351;28;20351;-87
2023/08/22 04:01:13;;;;;;;8.20;5.67;;;15.90;99.90;;;;;;5068132;28;20244;-87
2023/08/22 04:03:38;;;;;;;7.83;3.90;;;15.80;99.90;;;;;;5068371;28;20217;-88
2023/08/22 04:06:07;;;;;;;5.80;3.70;;;15.90;99.90;;;;;;5067739;28;20540;-89
2023/08/22 04:08:33;;;;;;;8.67;4.73;;;15.80;99.90;;;;;;5050595;28;20217;-86
2023/08/22 04:10:59;;;;;;;6.03;5.20;;;15.90;99.90;;;;;;5067959;28;20240;-87
2023/08/22 04:13:24;;;;;;;6.40;5.40;;;15.90;99.90;;;;;;5050090;28;20232;-87
2023/08/22 04:15:50;;;;;;;7.00;4.73;;;15.90;99.90;;;;;;5033926;28;20668;-88
2023/08/22 04:18:16;;;;;;;8.00;5.83;;;15.80;99.90;;;;;;5050357;28;20673;-87
2023/08/22 04:20:43;;;;;;;16.63;6.60;;;15.80;99.90;;;;;;5068840;28;20561;-88
2023/08/22 04:23:09;;;;;;;15.57;5.60;;;15.80;99.90;;;;;;5067525;28;20630;-88
2023/08/22 04:25:36;;;;;;;8.73;4.80;;;15.80;99.90;;;;;;5033390;28;20209;-87
2023/08/22 04:28:02;;;;;;;7.30;5.33;;;15.90;99.90;;;;;;5050515;28;20221;-87
2023/08/22 04:30:28;;;;;;;7.87;4.33;;;15.90;99.90;;;;;;5037316;28;20725;-87
2023/08/22 04:32:53;;;;;;;9.80;5.40;;;15.80;99.90;;;;;;5054848;28;20272;-86
2023/08/22 04:35:19;;;;;;;9.53;5.63;;;15.80;99.90;;;;;;5071759;28;20209;-88
2023/08/22 04:37:45;;;;;;;8.37;6.10;;;15.80;99.90;;;;;;5070445;28;20583;-87
2023/08/22 04:40:11;;;;;;;7.10;5.07;;;15.80;99.90;;;;;;5054048;28;20213;-88
2023/08/22 04:42:36;;;;;;;13.97;6.27;;;15.80;99.90;;;;;;5053986;28;20560;-87
2023/08/22 04:45:02;;;;;;;13.30;6.30;;;15.80;99.90;;;;;;5054941;28;20182;-87
2023/08/22 04:47:28;;;;;;;12.83;5.90;;;15.80;99.90;;;;;;5054087;28;20693;-88
2023/08/22 04:49:54;;;;;;;10.53;5.30;;;15.80;99.90;;;;;;5053929;28;20382;-85
2023/08/22 04:52:19;;;;;;;7.63;4.63;;;15.90;99.90;;;;;;5071469;28;20243;-88
2023/08/22 04:54:45;;;;;;;14.30;6.00;;;15.90;99.90;;;;;;5071390;28;20300;-88
2023/08/22 04:57:11;;;;;;;7.20;4.47;;;15.90;99.90;;;;;;5054167;28;20200;-85
2023/08/22 04:59:37;;;;;;;8.40;5.20;;;16.00;99.90;;;;;;5053399;28;20223;-85
2023/08/22 05:02:02;;;;;;;12.17;5.87;;;16.10;99.90;;;;;;5041949;28;20308;-87
2023/08/22 05:04:28;;;;;;;12.13;6.13;;;16.10;99.90;;;;;;5017324;28;20218;-88
2023/08/22 05:06:54;;;;;;;11.10;6.07;;;16.10;99.90;;;;;;5050494;28;20226;-88
2023/08/22 05:09:19;;;;;;;9.27;6.13;;;16.20;99.90;;;;;;5033615;28;20208;-89
2023/08/22 05:11:45;;;;;;;7.87;5.57;;;16.20;99.90;;;;;;5050886;28;20752;-86
2023/08/22 05:14:11;;;;;;;10.43;5.20;;;16.30;99.90;;;;;;5051155;28;20218;-87
2023/08/22 05:16:38;;;;;;;14.47;6.27;;;16.40;99.90;;;;;;5017185;28;20240;-88
2023/08/22 05:19:05;;;;;;;7.33;5.63;;;16.40;99.90;;;;;;5051126;28;20222;-85
2023/08/22 05:21:30;;;;;;;11.60;5.43;;;16.50;99.90;;;;;;5033181;28;20324;-87
2023/08/22 05:23:56;;;;;;;6.70;5.40;;;16.60;99.90;;;;;;5051343;28;20277;-89
2023/08/22 05:26:22;;;;;;;7.07;6.10;;;16.80;99.90;;;;;;5033195;28;20272;-88
2023/08/22 05:28:47;;;;;;;7.40;5.10;;;17.00;99.90;;;;;;5033123;28;20674;-88
2023/08/22 05:31:24;;;;;;;11.67;6.70;;;17.30;99.90;;;;;;5033268;28;20217;-89
2023/08/22 05:33:52;;;;;;;15.27;5.50;;;17.30;99.90;;;;;;5033536;28;20236;-87
2023/08/22 05:36:18;;;;;;;10.20;5.83;;;17.40;99.90;;;;;;5050678;28;20177;-88
2023/08/22 05:38:44;;;;;;;8.27;6.10;;;17.50;99.90;;;;;;5033943;28;20549;-88
2023/08/22 05:41:09;;;;;;;9.13;5.37;;;17.60;99.90;;;;;;5015687;28;20214;-87
2023/08/22 05:43:36;;;;;;;11.13;7.03;;;17.80;99.90;;;;;;5033134;28;20210;-89
2023/08/22 05:46:02;;;;;;;7.07;5.30;;;17.90;99.90;;;;;;5051025;28;20237;-88
2023/08/22 05:48:29;;;;;;;8.00;6.17;;;18.00;99.90;;;;;;5033143;28;20328;-89
2023/08/22 05:50:56;;;;;;;20.30;5.70;;;18.30;99.90;;;;;;5034108;28;20186;-87
2023/08/22 05:53:22;;;;;;;11.03;5.33;;;19.10;99.90;;;;;;5050921;28;20213;-87
2023/08/22 05:55:48;;;;;;;12.07;6.17;;;20.20;99.90;;;;;;5051036;28;20209;-88
2023/08/22 05:58:14;;;;;;;10.40;5.13;;;21.10;99.90;;;;;;5032816;28;20221;-87
2023/08/22 06:00:40;;;;;;;8.23;4.67;;;22.10;99.90;;;;;;5033117;28;20667;-90
2023/08/22 06:03:06;;;;;;;10.13;5.37;;;23.30;99.90;;;;;;5033339;28;20309;-90
2023/08/22 06:05:32;;;;;;;7.00;3.90;;;24.40;99.90;;;;;;5033241;28;20222;-86
2023/08/22 06:07:57;;;;;;;7.00;5.00;;;25.40;99.90;;;;;;5016151;28;20573;-85
2023/08/22 06:10:24;;;;;;;6.43;3.87;;;26.00;99.90;;;;;;5050497;28;20697;-88
2023/08/22 06:12:49;;;;;;;5.03;4.00;;;26.70;99.90;;;;;;5033017;28;20202;-86
2023/08/22 06:15:15;;;;;;;7.20;4.27;;;27.00;99.90;;;;;;5033265;28;20176;-86
2023/08/22 06:17:41;;;;;;;6.53;3.37;;;27.00;99.90;;;;;;5016556;28;20697;-85
2023/08/22 06:20:07;;;;;;;9.53;4.30;;;27.40;99.90;;;;;;5032419;28;20666;-85
2023/08/22 06:22:33;;;;;;;4.83;3.43;;;27.70;99.90;;;;;;5032850;28;20241;-88
2023/08/22 06:24:59;;;;;;;8.07;4.45;;;27.70;99.90;;;;;;5033432;28;20248;-88
2023/08/22 06:27:25;;;;;;;8.00;4.03;;;28.20;99.90;;;;;;5049733;28;20185;-87
2023/08/22 06:29:51;;;;;;;5.10;3.30;;;29.00;99.90;;;;;;5033774;28;20189;-89
2023/08/22 06:32:21;;;;;;;7.10;3.72;;;29.60;99.90;;;;;;5033286;28;20259;-90
2023/08/22 06:34:47;;;;;;;4.93;3.40;;;29.70;99.90;;;;;;5051374;28;20264;-92
2023/08/22 06:37:13;;;;;;;3.97;3.47;;;29.30;99.90;;;;;;5033138;28;20221;-92
2023/08/22 06:39:39;;;;;;;6.57;4.03;;;28.00;99.90;;;;;;5050600;28;20226;-93
2023/08/22 06:42:05;;;;;;;6.05;3.70;;;26.30;99.90;;;;;;5033914;28;20257;-93
2023/08/22 06:44:31;;;;;;;4.40;3.55;;;24.90;99.90;;;;;;5033283;28;20325;-93
2023/08/22 06:46:57;;;;;;;5.18;3.65;;;23.80;99.90;;;;;;5016952;28;20229;-94
2023/08/22 06:49:28;;;;;;;4.30;3.13;;;23.50;99.90;;;;;;5033274;28;20620;-92
2023/08/22 06:51:54;;;;;;;4.20;3.65;;;23.20;99.90;;;;;;5028180;28;20276;-92
2023/08/22 06:54:24;;;;;;;6.47;4.05;;;23.10;99.90;;;;;;5018274;28;20198;-93
2023/08/22 06:56:50;;;;;;;6.35;3.85;;;23.70;99.90;;;;;;5016838;28;20177;-92
2023/08/22 06:59:16;;;;;;;5.85;4.10;;;25.00;99.90;;;;;;5032616;28;20730;-91
2023/08/22 07:01:42;;;;;;;7.63;4.10;;;26.80;99.90;;;;;;5038422;28;20256;-91
2023/08/22 07:04:08;;;;;;;7.38;4.32;;;28.70;99.90;;;;;;5052129;28;20354;-91
2023/08/22 07:06:39;;;;;;;6.93;4.03;;;30.40;99.90;;;;;;5052502;28;20238;-91
2023/08/22 07:09:07;;;;;;;4.95;3.53;;;32.40;99.90;;;;;;5037367;28;20198;-92
2023/08/22 07:11:33;;;;;;;5.57;3.50;;;33.20;99.90;;;;;;5052306;28;20300;-92
2023/08/22 07:14:03;;;;;;;5.00;3.28;;;32.10;99.90;;;;;;5044212;28;20662;-89
2023/08/22 07:16:46;;;;;;;5.15;3.53;;;32.10;99.90;;;;;;5053190;28;20344;-90
2023/08/22 07:19:19;;;;;;;6.53;4.35;;;32.50;99.90;;;;;;5038894;28;20227;-91
2023/08/22 07:21:48;;;;;;;5.18;3.55;;;33.30;99.90;;;;;;5052535;28;20201;-90
2023/08/22 07:24:42;;;;;;;4.43;3.35;;;33.00;99.90;;;;;;5052917;28;20184;-89
2023/08/22 07:27:37;;;;;;;5.63;3.92;;;32.60;99.90;;;;;;5052083;28;20180;-90
2023/08/22 07:30:14;;;;;;;5.45;3.53;;;33.20;99.90;;;;;;5046761;28;20204;-90
2023/08/22 07:32:43;;;;;;;6.95;3.70;;;33.30;99.90;;;;;;5051640;28;20270;-89
2023/08/22 07:35:21;;;;;;;3.78;3.00;;;34.10;99.90;;;;;;5035221;28;20188;-90
2023/08/22 07:46:09;;;;;;;5.97;4.25;;;32.90;99.90;;;;;;4931106;28;20294;-91
2023/08/22 07:48:41;;;;;;;4.20;3.13;;;34.40;99.90;;;;;;4972695;28;20197;-90
2023/08/22 07:51:19;;;;;;;4.35;3.72;;;34.90;99.90;;;;;;5005102;28;20183;-90
2023/08/22 07:53:50;;;;;;;6.63;3.13;;;33.90;99.90;;;;;;5019305;28;20282;-90
2023/08/22 07:56:16;;;;;;;4.75;3.00;;;33.80;99.90;;;;;;5027243;28;20407;-90
2023/08/22 07:58:44;;;;;;;3.80;2.78;;;32.90;99.90;;;;;;5014279;28;20292;-90
2023/08/22 08:01:16;;;;;;;4.70;3.17;;;33.50;99.90;;;;;;5051927;28;20285;-90
2023/08/22 08:03:42;;;;;;;4.63;3.20;;;33.80;99.90;;;;;;5030535;28;20288;-90
2023/08/22 08:06:08;;;;;;;3.75;2.90;;;34.50;99.90;;;;;;5065604;28;20634;-90
2023/08/22 08:08:51;;;;;;;5.47;3.42;;;34.00;99.90;;;;;;5068751;28;20217;-90
2023/08/22 08:11:20;;;;;;;4.78;3.20;;;33.10;99.90;;;;;;5034223;28;20223;-91
2023/08/22 08:13:46;;;;;;;5.32;3.28;;;33.20;99.90;;;;;;5051538;28;20240;-93
2023/08/22 08:16:11;;;;;;;5.20;3.45;;;32.20;99.90;;;;;;5051699;28;20694;-88
2023/08/22 08:18:40;;;;;;;6.07;3.42;;;31.20;99.90;;;;;;5061030;28;20275;-91
2023/08/22 08:21:05;;;;;;;6.45;3.60;;;31.90;99.90;;;;;;5049162;28;20204;-89
2023/08/22 08:23:37;;;;;;;6.05;3.95;;;31.60;99.90;;;;;;5051015;28;20625;-92
2023/08/22 08:26:07;;;;;;;5.18;3.58;;;32.40;99.90;;;;;;5069580;28;20296;-91
2023/08/22 08:28:42;;;;;;;6.68;3.72;;;31.60;99.90;;;;;;5068657;28;20213;-91
2023/08/22 08:31:15;;;;;;;5.43;3.50;;;32.10;99.90;;;;;;5043338;28;20697;-92
2023/08/22 08:33:47;;;;;;;10.27;3.63;;;32.10;99.90;;;;;;5051824;28;20212;-89
2023/08/22 08:36:56;;;;;;;4.78;3.50;;;30.40;99.90;;;;;;5045169;28;20164;-92
2023/08/22 08:46:56;;;;;;;6.22;3.83;;;30.00;99.90;;;;;;4969054;28;20581;-91
2023/08/22 08:53:22;;;;;;;4.18;3.75;;;32.70;99.90;;;;;;4906360;28;20218;-94
2023/08/22 08:55:48;;;;;;;4.43;3.38;;;31.80;99.90;;;;;;4875606;29;20248;-92
2023/08/22 08:58:19;;;;;;;6.72;3.75;;;31.60;99.90;;;;;;4934325;28;20344;-92
2023/08/22 09:00:51;;;;;;;6.75;4.13;;;32.50;99.90;;;;;;5034796;28;20271;-92
2023/08/22 09:03:30;;;;;;;9.38;4.50;;;32.60;99.90;;;;;;5050784;28;20244;-92
2023/08/22 09:05:56;;;;;;;7.05;3.67;;;33.20;99.90;;;;;;5035846;28;20177;-92
2023/08/22 09:08:24;;;;;;;5.50;3.65;;;33.60;99.90;;;;;;5051176;28;20387;-90
2023/08/22 09:11:04;;;;;;;5.53;3.40;;;33.50;99.90;;;;;;5051915;28;20219;-94
2023/08/22 09:13:36;;;;;;;6.97;3.53;;;34.20;99.90;;;;;;5051484;28;20215;-93
2023/08/22 09:16:02;;;;;;;5.30;3.35;;;34.20;99.90;;;;;;5053401;28;20217;-91
2023/08/22 09:18:31;;;;;;;4.85;3.25;;;34.40;99.90;;;;;;5072259;28;20174;-92
2023/08/22 09:21:06;;;;;;;4.07;3.45;;;33.40;99.90;;;;;;5055777;28;20169;-93
2023/08/22 09:23:33;;;;;;;8.73;3.10;;;33.00;99.90;;;;;;5054323;28;20209;-90
2023/08/22 09:26:01;;;;;;;5.85;3.60;;;32.60;99.90;;;;;;5054522;28;20209;-92
2023/08/22 09:28:27;;;;;;;6.75;3.35;;;33.10;99.90;;;;;;5053799;28;20307;-93
2023/08/22 09:30:54;;;;;;;6.90;3.85;;;33.50;99.90;;;;;;5054337;28;20241;-91
2023/08/22 09:33:20;;;;;;;8.52;3.78;;;32.90;99.90;;;;;;5054431;28;20241;-94
2023/08/22 09:35:49;;;;;;;5.65;3.30;;;31.80;99.90;;;;;;5055231;28;20177;-91
2023/08/22 09:38:15;;;;;;;8.40;3.17;;;32.80;99.90;;;;;;5054385;28;20685;-91
2023/08/22 09:40:54;;;;;;;5.25;3.60;;;32.80;99.90;;;;;;5054217;28;20205;-92
2023/08/22 09:43:22;;;;;;;3.15;2.85;;;32.60;99.90;;;;;;5053679;28;20213;-92
2023/08/22 09:45:50;;;;;;;6.82;3.42;;;32.80;99.90;;;;;;5054174;28;20225;-92
2023/08/22 09:48:30;;;;;;;5.65;3.63;;;32.00;99.90;;;;;;5054637;28;20197;-90
2023/08/22 09:50:58;;;;;;;6.80;3.40;;;31.70;99.90;;;;;;5072873;28;20169;-92
2023/08/22 09:53:28;;;;;;;4.88;3.53;;;31.50;99.90;;;;;;5071568;28;20201;-93
2023/08/22 09:55:54;;;;;;;9.23;3.72;;;31.00;99.90;;;;;;5053785;28;20737;-91
2023/08/22 09:58:25;;;;;;;6.25;3.38;;;30.20;99.90;;;;;;5053326;28;20237;-92
2023/08/22 10:00:52;;;;;;;10.10;3.80;;;31.00;99.90;;;;;;5053594;28;20224;-90
2023/08/22 10:03:18;;;;;;;8.73;3.63;;;31.40;99.90;;;;;;5053442;28;20316;-91
2023/08/22 10:05:46;;;;;;;6.00;3.28;;;31.40;99.90;;;;;;5054752;28;20257;-91
2023/08/22 10:08:12;;;;;;;4.75;2.90;;;31.20;99.90;;;;;;5069942;28;20217;-91
2023/08/22 10:10:38;;;;;;;5.80;2.97;;;30.30;99.90;;;;;;5037071;28;20304;-90
2023/08/22 10:13:05;;;;;;;2.30;2.10;;;29.40;99.90;;;;;;5020832;28;20228;-91
2023/08/22 10:15:35;;;;;;;7.97;2.35;;;28.60;99.90;;;;;;5053410;28;20178;-90
2023/08/22 10:18:04;;;;;;;5.07;2.38;;;28.90;99.90;;;;;;5054121;28;20208;-90
2023/08/22 10:20:34;;;;;;;3.53;2.58;;;29.80;99.90;;;;;;5037137;28;20221;-91
2023/08/22 10:23:10;;;;;;;4.25;2.70;;;29.00;99.90;;;;;;5053435;28;20231;-91
2023/08/22 10:25:51;;;;;;;4.93;2.78;;;29.40;99.90;;;;;;5035720;28;20212;-91
2023/08/22 10:28:17;;;;;;;4.70;2.45;;;29.90;99.90;;;;;;5045479;28;20217;-90
2023/08/22 10:31:16;;;;;;;4.90;2.80;;;29.90;99.90;;;;;;5053191;28;20224;-92
2023/08/22 10:33:42;;;;;;;3.03;2.08;;;30.40;99.90;;;;;;5009056;28;20201;-94
2023/08/22 10:36:15;;;;;;;5.47;2.35;;;29.60;99.90;;;;;;5053599;28;20614;-92
2023/08/22 10:38:50;;;;;;;3.47;2.58;;;28.50;99.90;;;;;;5069769;28;20300;-91
2023/08/22 10:41:16;;;;;;;5.47;2.95;;;27.80;99.90;;;;;;5053053;28;20456;-91
2023/08/22 10:43:42;;;;;;;5.82;3.03;;;28.00;99.90;;;;;;5069298;28;20596;-92
2023/08/22 10:46:07;;;;;;;5.63;2.83;;;29.30;99.90;;;;;;5051876;28;20221;-91
2023/08/22 10:48:40;;;;;;;5.53;2.78;;;29.90;99.90;;;;;;5052640;28;20513;-92
2023/08/22 10:51:14;;;;;;;4.75;2.65;;;30.20;99.90;;;;;;5059888;28;20158;-90
2023/08/22 10:53:44;;;;;;;7.65;3.05;;;30.10;99.90;;;;;;5037520;28;20289;-91
2023/08/22 10:56:23;;;;;;;6.93;3.47;;;30.20;99.90;;;;;;5070202;28;20753;-90
2023/08/22 10:59:03;;;;;;;4.72;2.63;;;30.00;99.90;;;;;;5047807;28;20615;-91
2023/08/22 11:01:40;;;;;;;4.53;3.03;;;30.80;99.90;;;;;;5050727;28;20205;-92
2023/08/22 11:04:13;;;;;;;3.80;3.05;;;31.60;99.90;;;;;;5051900;28;20220;-92
2023/08/22 11:06:49;;;;;;;3.28;2.80;;;31.40;99.90;;;;;;5052385;28;20240;-91
2023/08/22 11:09:16;;;;;;;4.20;2.63;;;31.60;99.90;;;;;;5052160;28;20197;-91
2023/08/22 11:11:42;;;;;;;8.50;3.55;;;30.80;99.90;;;;;;5035599;28;20224;-91
2023/08/22 11:14:10;;;;;;;7.07;3.70;;;30.50;99.90;;;;;;5050573;28;20208;-90
2023/08/22 11:16:37;;;;;;;3.92;2.60;;;29.50;99.90;;;;;;5049329;28;20213;-89
2023/08/22 11:19:14;;;;;;;5.00;3.30;;;28.40;99.90;;;;;;5035570;28;20667;-90
2023/08/22 11:21:39;;;;;;;8.05;2.92;;;28.40;99.90;;;;;;5051873;28;20643;-91
2023/08/22 11:24:13;;;;;;;4.65;3.13;;;28.20;99.90;;;;;;5035583;28;20170;-89
2023/08/22 11:26:42;;;;;;;4.40;2.78;;;28.20;99.90;;;;;;5043065;28;20217;-90
2023/08/22 11:29:15;;;;;;;4.43;2.95;;;28.00;99.90;;;;;;5051936;28;20244;-91
2023/08/22 11:31:41;;;;;;;4.88;2.67;;;27.50;99.90;;;;;;5052111;28;20221;-88
2023/08/22 11:34:06;;;;;;;3.95;2.20;;;26.60;99.90;;;;;;5034151;28;20255;-89
2023/08/22 11:36:33;;;;;;;2.90;2.22;;;26.30;99.90;;;;;;5051560;28;20180;-89
2023/08/22 11:38:59;;;;;;;3.78;2.40;;;25.90;99.90;;;;;;5067851;28;20212;-89
2023/08/22 11:41:33;;;;;;;6.05;2.70;;;25.50;99.90;;;;;;5050701;28;20674;-89
2023/08/22 11:44:00;;;;;;;7.50;2.72;;;25.50;99.90;;;;;;5051754;28;20217;-89
2023/08/22 11:46:40;;;;;;;5.28;2.22;;;25.60;99.90;;;;;;5051893;28;20208;-90
2023/08/22 11:49:10;;;;;;;4.80;2.10;;;25.50;99.90;;;;;;5042441;28;20229;-90
2023/08/22 11:51:39;;;;;;;5.78;2.22;;;25.50;99.90;;;;;;5050898;28;20180;-91
2023/08/22 11:54:05;;;;;;;4.00;2.00;;;25.80;99.90;;;;;;5051846;28;20165;-88
2023/08/22 11:56:36;;;;;;;3.03;2.50;;;25.90;99.90;;;;;;5055956;28;20871;-90
2023/08/22 11:59:03;;;;;;;3.58;2.35;;;25.40;99.90;;;;;;5068493;28;20268;-91
2023/08/22 12:01:32;;;;;;;4.88;2.67;;;25.50;99.90;;;;;;5048816;28;20704;-91
2023/08/22 12:04:00;;;;;;;3.85;2.40;;;25.80;99.90;;;;;;5014722;28;20722;-90
2023/08/22 12:06:29;;;;;;;2.95;2.05;;;26.00;99.90;;;;;;5018968;28;20729;-91
2023/08/22 12:09:21;;;;;;;4.63;2.42;;;26.00;99.90;;;;;;5030229;28;20716;-89
2023/08/22 12:12:08;;;;;;;2.55;1.90;;;25.90;99.90;;;;;;5069360;28;20198;-91
2023/08/22 12:14:33;;;;;;;4.63;1.90;;;26.10;99.90;;;;;;5036194;28;20434;-90
2023/08/22 12:17:06;;;;;;;6.60;2.53;;;26.30;99.90;;;;;;5051333;28;20221;-89
2023/08/22 12:19:34;;;;;;;2.92;1.75;;;27.00;99.90;;;;;;5049824;28;20217;-89
2023/08/22 12:22:06;;;;;;;3.25;1.85;;;26.30;99.90;;;;;;5050920;28;20209;-90
2023/08/22 12:24:32;;;;;;;2.22;2.03;;;26.00;99.90;;;;;;5039081;28;20173;-90
2023/08/22 12:27:01;;;;;;;5.55;2.30;;;26.10;99.90;;;;;;5065348;28;20629;-88
2023/08/22 12:29:27;;;;;;;2.88;2.20;;;26.00;99.90;;;;;;5051018;28;20217;-90
2023/08/22 12:32:00;;;;;;;4.10;2.17;;;26.00;99.90;;;;;;5050430;28;20216;-90
2023/08/22 12:34:26;;;;;;;4.15;2.20;;;26.10;99.90;;;;;;5034771;28;20284;-90
2023/08/22 12:36:52;;;;;;;2.45;2.22;;;25.90;99.90;;;;;;5046500;28;20607;-91
2023/08/22 12:39:18;;;;;;;3.97;1.80;;;25.80;99.90;;;;;;5063284;28;20181;-91
2023/08/22 12:41:43;;;;;;;7.07;2.55;;;25.60;99.90;;;;;;5069905;28;20166;-90
2023/08/22 12:44:12;;;;;;;2.75;2.30;;;25.90;99.90;;;;;;5051249;28;20220;-91
2023/08/22 12:46:41;;;;;;;5.07;2.90;;;25.80;99.90;;;;;;5026791;28;20651;-90
2023/08/22 12:49:07;;;;;;;5.68;2.65;;;25.70;99.90;;;;;;5035853;28;20217;-89
2023/08/22 12:51:33;;;;;;;3.80;2.40;;;25.40;99.90;;;;;;5038662;28;20256;-93
2023/08/22 12:54:02;;;;;;;2.95;2.17;;;25.70;99.90;;;;;;5056126;28;20804;-90
2023/08/22 12:56:28;;;;;;;6.07;2.58;;;25.90;99.90;;;;;;5046507;28;20209;-90
2023/08/22 12:58:54;;;;;;;4.05;2.90;;;25.80;99.90;;;;;;5054961;28;20220;-88
2023/08/22 13:01:20;;;;;;;3.45;3.15;;;25.60;99.90;;;;;;5038442;28;20356;-88
2023/08/22 13:03:46;;;;;;;5.82;3.40;;;25.20;99.90;;;;;;5054625;28;20214;-90
2023/08/22 13:06:12;;;;;;;4.78;3.58;;;25.10;99.90;;;;;;5055600;28;20174;-90
2023/08/22 13:08:38;;;;;;;4.55;2.90;;;25.20;99.90;;;;;;5054678;28;20236;-89
2023/08/22 13:11:09;;;;;;;5.65;3.15;;;25.40;99.90;;;;;;5038995;28;20716;-90